createdAt,value
2023-02-03T00:00:40.955Z,1007.14
2023-02-03T00:01:38.391Z,1007.26
2023-02-03T00:02:37.999Z,1007.10
2023-02-03T00:03:37.915Z,1007.16
2023-02-03T00:04:40.587Z,1007.17
2023-02-03T00:05:39.105Z,1007.11
2023-02-03T00:06:41.213Z,1007.10
2023-02-03T00:07:41.861Z,1007.16
2023-02-03T00:08:40.670Z,1007.16
2023-02-03T00:09:42.574Z,1007.13
2023-02-03T00:10:39.821Z,1007.10
2023-02-03T00:11:43.757Z,1007.11
2023-02-03T00:12:42.373Z,1007.24
2023-02-03T00:13:46.844Z,1007.26
2023-02-03T00:14:41.884Z,1007.29
2023-02-03T00:15:40.960Z,1007.21
2023-02-03T00:16:41.164Z,1007.34
2023-02-03T00:17:43.647Z,1007.32
2023-02-03T00:18:55.391Z,1007.27
2023-02-03T00:19:41.607Z,1007.25
2023-02-03T00:20:48.474Z,1007.17
2023-02-03T00:21:44.333Z,1007.22
2023-02-03T00:22:43.990Z,1007.20
2023-02-03T00:23:41.813Z,1007.22
2023-02-03T00:24:43.426Z,1007.25
2023-02-03T00:25:42.932Z,1007.21
2023-02-03T00:26:45.424Z,1007.09
2023-02-03T00:27:49.515Z,1007.06
2023-02-03T00:28:46.515Z,1007.11
2023-02-03T00:29:44.788Z,1007.06
2023-02-03T00:30:49.222Z,1007.05
2023-02-03T00:31:47.872Z,1007.09
2023-02-03T00:32:46.033Z,1006.99
2023-02-03T00:33:48.275Z,1007.04
2023-02-03T00:34:45.236Z,1007.01
2023-02-03T00:35:45.619Z,1006.93
2023-02-03T00:36:51.253Z,1006.98
2023-02-03T00:37:46.221Z,1006.99
2023-02-03T00:38:45.517Z,1006.94
2023-02-03T00:39:49.757Z,1007.01
2023-02-03T00:40:51.898Z,1006.83
2023-02-03T00:41:46.654Z,1006.90
2023-02-03T00:42:46.317Z,1006.88
2023-02-03T00:43:47.130Z,1006.87
2023-02-03T00:44:50.928Z,1006.91
2023-02-03T00:45:47.332Z,1006.81
2023-02-03T00:46:48.338Z,1006.82
2023-02-03T00:47:51.792Z,1006.81
2023-02-03T00:48:49.347Z,1006.80
2023-02-03T00:49:50.849Z,1006.88
2023-02-03T00:50:49.109Z,1006.72
2023-02-03T00:51:55.402Z,1006.91
2023-02-03T00:52:53.251Z,1006.90
2023-02-03T00:53:52.422Z,1006.87
2023-02-03T00:54:49.083Z,1006.94
2023-02-03T00:55:49.271Z,1006.90
2023-02-03T00:56:55.482Z,1006.90
2023-02-03T00:57:49.196Z,1006.99
2023-02-03T00:58:51.840Z,1006.93
2023-02-03T00:59:51.954Z,1006.88
2023-02-03T01:00:53.411Z,1006.94
2023-02-03T01:01:52.284Z,1006.92
2023-02-03T01:02:50.975Z,1006.93
2023-02-03T01:03:56.072Z,1006.94
2023-02-03T01:04:55.516Z,1006.92
2023-02-03T01:05:52.207Z,1006.89
2023-02-03T01:06:56.302Z,1006.84
2023-02-03T01:07:58.548Z,1006.98
2023-02-03T01:08:52.304Z,1006.91
2023-02-03T01:09:56.427Z,1006.90
2023-02-03T01:10:56.154Z,1006.92
2023-02-03T01:11:54.486Z,1006.91
2023-02-03T01:12:52.713Z,1006.88
2023-02-03T01:13:52.606Z,1006.87
2023-02-03T01:14:53.455Z,1006.91
2023-02-03T01:16:00.520Z,1006.99
2023-02-03T01:16:56.189Z,1007.02
2023-02-03T01:18:03.461Z,1006.98
2023-02-03T01:21:27.579Z,1006.95
2023-02-03T01:22:25.783Z,1006.98
2023-02-03T01:23:25.607Z,1006.96
2023-02-03T01:24:28.120Z,1007.01
2023-02-03T01:25:28.148Z,1006.95
2023-02-03T01:26:26.376Z,1006.90
2023-02-03T01:27:26.433Z,1007.01
2023-02-03T01:28:26.319Z,1007.01
2023-02-03T01:29:26.935Z,1006.91
2023-02-03T01:30:27.963Z,1007.06
2023-02-03T01:31:27.611Z,1007.14
2023-02-03T01:32:27.505Z,1007.10
2023-02-03T01:33:28.775Z,1007.07
2023-02-03T01:34:28.195Z,1007.14
2023-02-03T01:35:28.802Z,1007.06
2023-02-03T01:36:28.704Z,1007.01
2023-02-03T01:37:30.548Z,1007.04
2023-02-03T01:38:29.373Z,1007.10
2023-02-03T01:39:30.531Z,1007.03
2023-02-03T01:40:29.529Z,1006.96
2023-02-03T01:41:29.879Z,1006.92
2023-02-03T01:42:30.665Z,1006.90
2023-02-03T01:43:31.003Z,1006.92
2023-02-03T01:44:31.601Z,1006.95
2023-02-03T01:45:31.040Z,1007.03
2023-02-03T01:46:33.597Z,1007.01
2023-02-03T01:47:31.346Z,1006.97
2023-02-03T01:48:31.811Z,1006.88
2023-02-03T01:49:32.311Z,1006.93
2023-02-03T01:50:33.883Z,1006.89
2023-02-03T01:51:33.532Z,1006.95
2023-02-03T01:52:33.486Z,1006.94
2023-02-03T01:53:33.940Z,1006.88
2023-02-03T01:54:33.898Z,1006.97
2023-02-03T01:55:36.523Z,1006.99
2023-02-03T01:56:35.240Z,1006.95
2023-02-03T01:57:35.078Z,1006.96
2023-02-03T01:58:35.016Z,1007.02
2023-02-03T01:59:36.305Z,1007.09
2023-02-03T02:00:35.617Z,1007.10
2023-02-03T02:01:36.061Z,1007.12
2023-02-03T02:02:37.438Z,1007.08
2023-02-03T02:03:36.843Z,1007.20
2023-02-03T02:04:36.857Z,1007.02
2023-02-03T02:05:37.260Z,1006.95
2023-02-03T02:06:37.838Z,1006.90
2023-02-03T02:07:37.849Z,1006.85
2023-02-03T02:08:38.228Z,1006.84
2023-02-03T02:09:38.516Z,1006.82
2023-02-03T02:10:38.858Z,1006.74
2023-02-03T02:11:39.390Z,1006.77
2023-02-03T02:12:39.187Z,1006.82
2023-02-03T02:13:40.390Z,1006.78
2023-02-03T02:14:40.846Z,1006.66
2023-02-03T02:15:40.375Z,1006.63
2023-02-03T02:16:40.423Z,1006.63
2023-02-03T02:17:41.165Z,1006.58
2023-02-03T02:18:40.839Z,1006.61
2023-02-03T02:19:40.728Z,1006.63
2023-02-03T02:20:41.100Z,1006.66
2023-02-03T02:21:41.706Z,1006.77
2023-02-03T02:22:41.702Z,1006.75
2023-02-03T02:23:41.990Z,1006.69
2023-02-03T02:24:42.211Z,1006.71
2023-02-03T02:25:42.718Z,1006.62
2023-02-03T02:26:42.276Z,1006.50
2023-02-03T02:27:42.100Z,1006.49
2023-02-03T02:28:43.196Z,1006.52
2023-02-03T02:29:42.609Z,1006.59
2023-02-03T02:30:43.038Z,1006.61
2023-02-03T02:31:43.045Z,1006.58
2023-02-03T02:32:44.028Z,1006.63
2023-02-03T02:33:43.291Z,1006.55
2023-02-03T02:34:44.625Z,1006.59
2023-02-03T02:35:43.512Z,1006.58
2023-02-03T02:36:44.143Z,1006.47
2023-02-03T02:37:44.412Z,1006.42
2023-02-03T02:38:45.159Z,1006.17
2023-02-03T02:39:44.483Z,1006.21
2023-02-03T02:40:44.799Z,1006.39
2023-02-03T02:41:45.170Z,1006.18
2023-02-03T02:42:47.501Z,1006.22
2023-02-03T02:43:45.742Z,1006.23
2023-02-03T02:44:46.247Z,1006.24
2023-02-03T02:45:48.531Z,1006.16
2023-02-03T02:46:46.641Z,1006.25
2023-02-03T02:47:46.620Z,1006.23
2023-02-03T02:48:47.065Z,1006.10
2023-02-03T02:49:50.901Z,1006.03
2023-02-03T02:50:47.812Z,1006.21
2023-02-03T02:51:48.135Z,1006.18
2023-02-03T02:52:48.373Z,1006.13
2023-02-03T02:53:48.851Z,1006.32
2023-02-03T02:54:51.719Z,1006.29
2023-02-03T02:55:49.195Z,1006.15
2023-02-03T02:56:50.972Z,1006.18
2023-02-03T02:57:52.449Z,1006.10
2023-02-03T02:58:49.510Z,1005.91
2023-02-03T02:59:49.912Z,1006.01
2023-02-03T03:00:51.935Z,1005.97
2023-02-03T03:01:49.988Z,1005.96
2023-02-03T03:02:50.894Z,1005.94
2023-02-03T03:03:49.868Z,1006.08
2023-02-03T03:04:50.312Z,1006.10
2023-02-03T03:05:50.747Z,1006.15
2023-02-03T03:06:50.953Z,1006.03
2023-02-03T03:07:50.842Z,1006.09
2023-02-03T03:08:51.307Z,1006.19
2023-02-03T03:09:51.699Z,1006.10
2023-02-03T03:10:53.140Z,1006.19
2023-02-03T03:11:51.939Z,1006.26
2023-02-03T03:12:54.141Z,1006.38
2023-02-03T03:13:52.494Z,1006.40
2023-02-03T03:14:53.123Z,1006.40
2023-02-03T03:15:53.207Z,1006.51
2023-02-03T03:16:53.129Z,1006.56
2023-02-03T03:17:53.589Z,1006.51
2023-02-03T03:18:54.011Z,1006.53
2023-02-03T03:19:54.170Z,1006.46
2023-02-03T03:20:53.991Z,1006.43
2023-02-03T03:21:54.396Z,1006.52
2023-02-03T03:22:54.744Z,1006.46
2023-02-03T03:23:55.064Z,1006.55
2023-02-03T03:24:55.452Z,1006.67
2023-02-03T03:25:55.826Z,1006.60
2023-02-03T03:26:56.278Z,1006.76
2023-02-03T03:27:57.885Z,1006.68
2023-02-03T03:28:56.824Z,1006.56
2023-02-03T03:29:58.780Z,1006.53
2023-02-03T03:30:57.137Z,1006.54
2023-02-03T03:31:57.561Z,1006.47
2023-02-03T03:32:57.978Z,1006.44
2023-02-03T03:33:59.253Z,1006.54
2023-02-03T03:34:58.675Z,1006.58
2023-02-03T03:35:59.571Z,1006.49
2023-02-03T03:36:59.885Z,1006.51
2023-02-03T03:37:59.897Z,1006.51
2023-02-03T03:38:59.905Z,1006.39
2023-02-03T03:39:59.703Z,1006.45
2023-02-03T03:40:59.973Z,1006.41
2023-02-03T03:42:00.576Z,1006.43
2023-02-03T03:43:00.403Z,1006.39
2023-02-03T03:44:00.880Z,1006.35
2023-02-03T03:45:00.730Z,1006.37
2023-02-03T03:46:01.121Z,1006.27
2023-02-03T03:47:01.568Z,1006.18
2023-02-03T03:48:01.858Z,1006.19
2023-02-03T03:49:02.798Z,1006.04
2023-02-03T03:50:02.220Z,1005.95
2023-02-03T03:51:02.927Z,1006.00
2023-02-03T03:52:02.967Z,1006.02
2023-02-03T03:53:02.911Z,1006.15
2023-02-03T03:54:02.877Z,1006.09
2023-02-03T03:55:03.513Z,1006.14
2023-02-03T03:56:04.116Z,1006.12
2023-02-03T03:57:03.409Z,1006.19
2023-02-03T03:58:04.630Z,1006.10
2023-02-03T03:59:05.016Z,1006.10
2023-02-03T04:00:05.668Z,1006.00
2023-02-03T04:01:08.684Z,1005.98
2023-02-03T04:02:05.748Z,1005.99
2023-02-03T04:03:05.144Z,1006.06
2023-02-03T04:04:04.939Z,1006.05
2023-02-03T04:05:08.331Z,1006.12
2023-02-03T04:06:06.217Z,1006.13
2023-02-03T04:07:05.537Z,1006.04
2023-02-03T04:08:06.816Z,1005.97
2023-02-03T04:09:07.633Z,1005.98
2023-02-03T04:10:07.270Z,1006.02
2023-02-03T04:11:08.167Z,1005.82
2023-02-03T04:12:07.904Z,1005.81
2023-02-03T04:13:08.154Z,1005.87
2023-02-03T04:14:08.940Z,1005.85
2023-02-03T04:15:08.787Z,1005.90
2023-02-03T04:16:09.048Z,1005.81
2023-02-03T04:17:09.215Z,1005.69
2023-02-03T04:18:08.575Z,1005.69
2023-02-03T04:19:09.215Z,1005.71
2023-02-03T04:20:09.036Z,1005.79
2023-02-03T04:21:09.348Z,1005.71
2023-02-03T04:22:09.577Z,1005.70
2023-02-03T04:23:11.660Z,1005.73
2023-02-03T04:24:11.010Z,1005.64
2023-02-03T04:25:11.263Z,1005.61
2023-02-03T04:26:11.281Z,1005.48
2023-02-03T04:27:12.118Z,1005.55
2023-02-03T04:28:11.409Z,1005.44
2023-02-03T04:29:11.509Z,1005.54
2023-02-03T04:30:11.984Z,1005.52
2023-02-03T04:31:12.484Z,1005.56
2023-02-03T04:32:12.452Z,1005.63
2023-02-03T04:33:12.696Z,1005.62
2023-02-03T04:34:15.905Z,1005.50
2023-02-03T04:35:14.571Z,1005.48
2023-02-03T04:36:14.020Z,1005.51
2023-02-03T04:37:14.723Z,1005.49
2023-02-03T04:38:14.765Z,1005.48
2023-02-03T04:39:13.667Z,1005.45
2023-02-03T04:40:14.185Z,1005.35
2023-02-03T04:41:14.069Z,1005.44
2023-02-03T04:42:14.360Z,1005.50
2023-02-03T04:43:16.695Z,1005.47
2023-02-03T04:44:15.140Z,1005.42
2023-02-03T04:45:15.647Z,1005.40
2023-02-03T04:46:16.694Z,1005.42
2023-02-03T04:47:16.532Z,1005.42
2023-02-03T04:48:17.081Z,1005.40
2023-02-03T04:49:19.911Z,1005.46
2023-02-03T04:50:16.665Z,1005.33
2023-02-03T04:51:17.337Z,1005.48
2023-02-03T04:52:17.178Z,1005.59
2023-02-03T04:53:17.488Z,1005.34
2023-02-03T04:54:18.563Z,1005.49
2023-02-03T04:55:17.814Z,1005.47
2023-02-03T04:56:19.184Z,1005.46
2023-02-03T04:57:19.549Z,1005.41
2023-02-03T04:58:19.028Z,1005.42
2023-02-03T04:59:22.287Z,1005.40
2023-02-03T05:00:20.526Z,1005.32
2023-02-03T05:01:19.598Z,1005.38
2023-02-03T05:02:19.467Z,1005.31
2023-02-03T05:03:20.212Z,1005.42
2023-02-03T05:04:20.342Z,1005.40
2023-02-03T05:05:22.484Z,1005.41
2023-02-03T05:06:21.480Z,1005.31
2023-02-03T05:07:22.733Z,1005.36
2023-02-03T05:08:21.037Z,1005.30
2023-02-03T05:09:21.522Z,1005.24
2023-02-03T05:10:21.999Z,1005.23
2023-02-03T05:11:21.732Z,1005.23
2023-02-03T05:12:22.039Z,1005.15
2023-02-03T05:13:23.501Z,1005.25
2023-02-03T05:14:22.363Z,1005.23
2023-02-03T05:15:22.656Z,1005.18
2023-02-03T05:16:24.320Z,1005.10
2023-02-03T05:17:24.749Z,1005.16
2023-02-03T05:18:24.738Z,1005.12
2023-02-03T05:19:23.568Z,1005.24
2023-02-03T05:20:23.828Z,1005.32
2023-02-03T05:21:24.415Z,1005.18
2023-02-03T05:22:24.706Z,1005.13
2023-02-03T05:23:24.747Z,1005.08
2023-02-03T05:24:26.270Z,1005.12
2023-02-03T05:25:25.830Z,1005.04
2023-02-03T05:26:25.333Z,1005.13
2023-02-03T05:27:25.781Z,1005.03
2023-02-03T05:28:28.506Z,1004.96
2023-02-03T05:29:29.272Z,1005.10
2023-02-03T05:30:27.031Z,1004.95
2023-02-03T05:31:27.342Z,1005.04
2023-02-03T05:32:31.794Z,1004.98
2023-02-03T05:33:27.626Z,1004.95
2023-02-03T05:34:29.155Z,1005.02
2023-02-03T05:35:27.507Z,1005.01
2023-02-03T05:36:28.901Z,1005.03
2023-02-03T05:37:29.490Z,1005.15
2023-02-03T05:38:28.270Z,1005.07
2023-02-03T05:39:29.278Z,1005.16
2023-02-03T05:40:29.500Z,1005.27
2023-02-03T05:41:32.232Z,1005.03
2023-02-03T05:42:32.749Z,1005.31
2023-02-03T05:43:29.339Z,1005.17
2023-02-03T05:44:29.669Z,1005.13
2023-02-03T05:45:30.013Z,1005.14
2023-02-03T05:46:30.338Z,1005.07
2023-02-03T05:47:30.838Z,1005.15
2023-02-03T05:48:31.640Z,1005.11
2023-02-03T05:49:31.095Z,1004.98
2023-02-03T05:50:31.650Z,1004.99
2023-02-03T05:51:32.373Z,1005.01
2023-02-03T05:52:35.806Z,1005.11
2023-02-03T05:53:32.093Z,1005.17
2023-02-03T05:54:32.420Z,1005.13
2023-02-03T05:55:32.727Z,1005.18
2023-02-03T05:56:32.969Z,1005.06
2023-02-03T05:57:33.370Z,1005.02
2023-02-03T05:58:33.871Z,1004.98
2023-02-03T05:59:33.774Z,1004.90
2023-02-03T06:00:34.659Z,1005.05
2023-02-03T06:01:33.967Z,1004.96
2023-02-03T06:02:34.308Z,1004.89
2023-02-03T06:03:35.619Z,1004.78
2023-02-03T06:04:35.086Z,1004.91
2023-02-03T06:05:35.470Z,1004.93
2023-02-03T06:06:35.975Z,1004.72
2023-02-03T06:07:37.911Z,1004.82
2023-02-03T06:08:36.293Z,1004.95
2023-02-03T06:09:38.838Z,1004.79
2023-02-03T06:10:37.479Z,1005.00
2023-02-03T06:11:36.805Z,1004.92
2023-02-03T06:12:37.299Z,1005.00
2023-02-03T06:13:37.258Z,1004.99
2023-02-03T06:14:38.222Z,1004.88
2023-02-03T06:15:40.194Z,1004.92
2023-02-03T06:16:40.372Z,1005.01
2023-02-03T06:17:38.830Z,1005.07
2023-02-03T06:18:39.763Z,1004.96
2023-02-03T06:19:41.825Z,1005.08
2023-02-03T06:20:39.263Z,1004.90
2023-02-03T06:21:40.527Z,1005.02
2023-02-03T06:22:40.259Z,1004.81
2023-02-03T06:23:40.290Z,1005.02
2023-02-03T06:24:40.841Z,1004.94
2023-02-03T06:25:40.719Z,1005.02
2023-02-03T06:26:41.137Z,1005.02
2023-02-03T06:27:41.865Z,1005.00
2023-02-03T06:28:42.085Z,1004.98
2023-02-03T06:29:42.067Z,1005.09
2023-02-03T06:30:44.441Z,1005.10
2023-02-03T06:31:43.833Z,1005.13
2023-02-03T06:32:43.815Z,1005.08
2023-02-03T06:33:43.031Z,1005.01
2023-02-03T06:34:45.054Z,1005.06
2023-02-03T06:35:44.121Z,1004.90
2023-02-03T06:36:44.485Z,1004.93
2023-02-03T06:37:43.329Z,1005.15
2023-02-03T06:38:45.747Z,1005.07
2023-02-03T06:39:43.587Z,1005.18
2023-02-03T06:40:43.903Z,1005.17
2023-02-03T06:41:44.860Z,1005.10
2023-02-03T06:42:44.706Z,1005.04
2023-02-03T06:43:45.471Z,1005.09
2023-02-03T06:44:44.614Z,1005.09
2023-02-03T06:45:45.632Z,1005.04
2023-02-03T06:46:46.076Z,1005.05
2023-02-03T06:47:45.379Z,1004.86
2023-02-03T06:48:45.911Z,1005.05
2023-02-03T06:49:46.709Z,1005.15
2023-02-03T06:50:48.314Z,1005.04
2023-02-03T06:51:48.472Z,1005.08
2023-02-03T06:52:46.131Z,1004.97
2023-02-03T06:53:46.008Z,1004.89
2023-02-03T06:54:46.459Z,1004.94
2023-02-03T06:55:47.370Z,1004.92
2023-02-03T06:56:46.902Z,1004.92
2023-02-03T06:57:46.828Z,1004.79
2023-02-03T06:58:47.128Z,1004.89
2023-02-03T06:59:50.092Z,1005.00
2023-02-03T07:00:48.574Z,1004.93
2023-02-03T07:01:48.742Z,1004.97
2023-02-03T07:02:47.694Z,1004.92
2023-02-03T07:03:51.219Z,1004.85
2023-02-03T07:04:52.288Z,1004.79
2023-02-03T07:05:48.247Z,1004.87
2023-02-03T07:06:50.157Z,1004.90
2023-02-03T07:07:49.191Z,1004.95
2023-02-03T07:08:52.733Z,1004.92
2023-02-03T07:09:49.457Z,1004.86
2023-02-03T07:10:49.539Z,1004.89
2023-02-03T07:11:49.656Z,1004.83
2023-02-03T07:12:49.461Z,1005.01
2023-02-03T07:13:50.228Z,1005.18
2023-02-03T07:14:50.166Z,1005.10
2023-02-03T07:15:51.216Z,1005.10
2023-02-03T07:16:51.158Z,1005.18
2023-02-03T07:17:51.430Z,1005.07
2023-02-03T07:18:50.917Z,1005.17
2023-02-03T07:19:51.453Z,1005.17
2023-02-03T07:20:52.006Z,1005.09
2023-02-03T07:21:53.182Z,1005.08
2023-02-03T07:22:52.086Z,1005.04
2023-02-03T07:23:52.973Z,1005.05
2023-02-03T07:24:52.458Z,1005.10
2023-02-03T07:25:53.893Z,1005.05
2023-02-03T07:26:53.006Z,1005.08
2023-02-03T07:27:53.015Z,1005.17
2023-02-03T07:28:53.762Z,1005.13
2023-02-03T07:29:53.380Z,1005.16
2023-02-03T07:30:57.194Z,1005.13
2023-02-03T07:31:54.211Z,1005.21
2023-02-03T07:32:54.842Z,1005.14
2023-02-03T07:33:54.537Z,1005.11
2023-02-03T07:34:54.948Z,1005.10
2023-02-03T07:35:55.522Z,1005.21
2023-02-03T07:36:57.252Z,1005.15
2023-02-03T07:37:55.803Z,1005.02
2023-02-03T07:38:55.793Z,1005.14
2023-02-03T07:39:55.666Z,1005.06
2023-02-03T07:40:56.223Z,1005.14
2023-02-03T07:41:56.716Z,1005.11
2023-02-03T07:42:56.714Z,1005.13
2023-02-03T07:43:56.838Z,1005.07
2023-02-03T07:44:57.094Z,1005.08
2023-02-03T07:45:57.094Z,1005.05
2023-02-03T07:46:58.393Z,1005.00
2023-02-03T07:47:57.823Z,1004.96
2023-02-03T07:48:57.686Z,1004.98
2023-02-03T07:49:57.753Z,1004.96
2023-02-03T07:50:58.829Z,1004.90
2023-02-03T07:51:57.833Z,1004.86
2023-02-03T07:52:59.843Z,1004.83
2023-02-03T07:54:01.098Z,1004.62
2023-02-03T07:55:00.411Z,1004.75
2023-02-03T07:55:59.619Z,1004.71
2023-02-03T07:56:59.110Z,1004.67
2023-02-03T07:58:00.147Z,1004.71
2023-02-03T07:58:59.980Z,1004.71
2023-02-03T08:00:02.983Z,1004.77
2023-02-03T08:01:01.260Z,1004.72
2023-02-03T08:02:01.072Z,1004.83
2023-02-03T08:03:02.072Z,1004.88
2023-02-03T08:04:03.749Z,1004.44
2023-02-03T08:05:01.375Z,1004.72
2023-02-03T08:06:01.453Z,1004.72
2023-02-03T08:07:02.726Z,1004.83
2023-02-03T08:08:02.936Z,1004.80
2023-02-03T08:09:02.156Z,1004.75
2023-02-03T08:10:07.345Z,1004.78
2023-02-03T08:11:03.814Z,1004.81
2023-02-03T08:12:16.702Z,1004.75
2023-02-03T08:13:07.586Z,1004.74
2023-02-03T08:14:09.886Z,1004.57
2023-02-03T08:16:52.085Z,1004.65
2023-02-03T08:17:46.998Z,1004.59
2023-02-03T08:18:48.446Z,1004.55
2023-02-03T08:19:47.286Z,1004.67
2023-02-03T08:20:49.339Z,1004.58
2023-02-03T08:21:49.112Z,1004.48
2023-02-03T08:22:48.083Z,1004.59
2023-02-03T08:23:48.406Z,1004.53
2023-02-03T08:24:49.492Z,1004.51
2023-02-03T08:25:49.261Z,1004.63
2023-02-03T08:26:50.104Z,1004.60
2023-02-03T08:27:50.737Z,1004.46
2023-02-03T08:28:53.632Z,1004.59
2023-02-03T08:29:53.901Z,1004.79
2023-02-03T08:30:57.118Z,1004.47
2023-02-03T08:31:52.810Z,1004.69
2023-02-03T08:32:54.645Z,1004.62
2023-02-03T08:34:33.974Z,1004.52
2023-02-03T08:35:30.521Z,1004.66
2023-02-03T08:36:30.566Z,1004.62
2023-02-03T08:37:31.299Z,1004.58
2023-02-03T08:38:31.089Z,1004.59
2023-02-03T08:39:31.173Z,1004.52
2023-02-03T08:40:31.357Z,1004.54
2023-02-03T08:41:31.560Z,1004.55
2023-02-03T08:42:32.318Z,1004.53
2023-02-03T08:43:31.659Z,1004.63
2023-02-03T08:44:32.298Z,1004.59
2023-02-03T08:45:34.461Z,1004.54
2023-02-03T08:46:33.482Z,1004.53
2023-02-03T08:47:32.946Z,1004.60
2023-02-03T08:48:33.718Z,1004.53
2023-02-03T08:49:33.716Z,1004.54
2023-02-03T08:50:33.388Z,1004.55
2023-02-03T08:51:34.245Z,1004.48
2023-02-03T08:52:35.204Z,1004.45
2023-02-03T08:53:40.620Z,1004.49
2023-02-03T08:54:34.834Z,1004.56
2023-02-03T08:55:35.472Z,1004.54
2023-02-03T08:56:35.962Z,1004.56
2023-02-03T08:57:35.354Z,1004.47
2023-02-03T08:58:35.857Z,1004.46
2023-02-03T08:59:36.660Z,1004.43
2023-02-03T09:00:37.041Z,1004.10
2023-02-03T09:01:36.763Z,1004.32
2023-02-03T09:02:36.923Z,1004.27
2023-02-03T09:03:37.296Z,1004.16
2023-02-03T09:04:37.266Z,1004.19
2023-02-03T09:05:37.702Z,1004.15
2023-02-03T09:06:38.233Z,1004.22
2023-02-03T09:07:39.521Z,1004.38
2023-02-03T09:08:39.213Z,1004.25
2023-02-03T09:09:38.699Z,1004.34
2023-02-03T09:10:39.632Z,1004.26
2023-02-03T09:11:39.568Z,1004.26
2023-02-03T09:12:39.885Z,1004.26
2023-02-03T09:13:41.391Z,1004.23
2023-02-03T09:14:40.566Z,1004.15
2023-02-03T09:15:42.392Z,1004.22
2023-02-03T09:16:44.405Z,1004.13
2023-02-03T09:17:40.807Z,1004.16
2023-02-03T09:18:44.663Z,1004.36
2023-02-03T09:19:41.501Z,1004.36
2023-02-03T09:20:43.197Z,1004.23
2023-02-03T09:21:46.163Z,1004.38
2023-02-03T09:22:43.160Z,1004.42
2023-02-03T09:23:47.777Z,1004.51
2023-02-03T09:24:43.216Z,1004.50
2023-02-03T09:25:47.251Z,1004.57
2023-02-03T09:26:44.255Z,1004.63
2023-02-03T09:27:44.644Z,1004.67
2023-02-03T09:28:46.431Z,1004.50
2023-02-03T09:29:45.199Z,1004.35
2023-02-03T09:30:45.772Z,1004.63
2023-02-03T09:31:44.683Z,1004.66
2023-02-03T09:32:46.211Z,1004.86
2023-02-03T09:33:46.331Z,1004.64
2023-02-03T09:34:45.920Z,1004.88
2023-02-03T09:35:46.045Z,1004.85
2023-02-03T09:36:47.819Z,1004.71
2023-02-03T09:37:45.870Z,1004.66
2023-02-03T09:38:45.837Z,1004.47
2023-02-03T09:39:46.140Z,1004.48
2023-02-03T09:40:47.446Z,1004.52
2023-02-03T09:41:46.811Z,1004.46
2023-02-03T09:42:48.060Z,1004.55
2023-02-03T09:43:47.603Z,1004.47
2023-02-03T09:44:48.003Z,1004.46
2023-02-03T09:45:49.219Z,1004.47
2023-02-03T09:46:48.961Z,1004.40
2023-02-03T09:47:49.120Z,1004.64
2023-02-03T09:48:48.667Z,1004.44
2023-02-03T09:49:50.983Z,1004.42
2023-02-03T09:50:49.240Z,1004.40
2023-02-03T09:51:49.248Z,1004.44
2023-02-03T09:52:50.289Z,1004.20
2023-02-03T09:53:49.941Z,1004.25
2023-02-03T09:54:53.396Z,1004.44
2023-02-03T09:55:50.671Z,1004.47
2023-02-03T09:56:50.656Z,1004.39
2023-02-03T09:57:50.985Z,1004.38
2023-02-03T09:58:50.565Z,1004.35
2023-02-03T09:59:50.531Z,1004.51
2023-02-03T10:00:50.899Z,1004.45
2023-02-03T10:01:53.893Z,1004.49
2023-02-03T10:02:51.346Z,1004.30
2023-02-03T10:03:54.906Z,1004.46
2023-02-03T10:04:52.257Z,1004.50
2023-02-03T10:05:52.271Z,1004.46
2023-02-03T10:06:55.572Z,1004.32
2023-02-03T10:07:54.075Z,1004.45
2023-02-03T10:08:54.564Z,1004.28
2023-02-03T10:09:53.826Z,1004.33
2023-02-03T10:10:53.609Z,1004.34
2023-02-03T10:11:53.300Z,1004.51
2023-02-03T10:12:54.017Z,1004.57
2023-02-03T10:13:53.866Z,1004.31
2023-02-03T10:14:55.218Z,1004.40
2023-02-03T10:15:54.862Z,1004.38
2023-02-03T10:16:57.224Z,1004.38
2023-02-03T10:17:55.371Z,1004.51
2023-02-03T10:18:56.100Z,1004.45
2023-02-03T10:19:56.978Z,1004.57
2023-02-03T10:20:56.815Z,1004.32
2023-02-03T10:21:58.537Z,1004.57
2023-02-03T10:22:57.185Z,1004.59
2023-02-03T10:24:01.478Z,1004.49
2023-02-03T10:24:57.362Z,1004.58
2023-02-03T10:25:58.496Z,1004.53
2023-02-03T10:26:59.877Z,1004.53
2023-02-03T10:27:57.815Z,1004.46
2023-02-03T10:28:59.308Z,1004.37
2023-02-03T10:29:59.111Z,1004.42
2023-02-03T10:31:01.735Z,1004.26
2023-02-03T10:32:01.626Z,1004.42
2023-02-03T10:32:59.192Z,1004.55
2023-02-03T10:34:00.693Z,1004.54
2023-02-03T10:35:01.506Z,1004.47
2023-02-03T10:36:00.456Z,1004.53
2023-02-03T10:36:59.892Z,1004.60
2023-02-03T10:38:00.775Z,1004.46
2023-02-03T10:39:00.653Z,1004.26
2023-02-03T10:40:00.171Z,1004.45
2023-02-03T10:41:00.638Z,1004.49
2023-02-03T10:42:02.906Z,1004.43
2023-02-03T10:43:03.780Z,1004.52
2023-02-03T10:44:01.189Z,1004.39
2023-02-03T10:45:02.284Z,1004.34
2023-02-03T10:46:03.226Z,1004.32
2023-02-03T10:47:04.068Z,1004.50
2023-02-03T10:48:05.012Z,1004.42
2023-02-03T10:49:02.246Z,1004.44
2023-02-03T10:50:03.735Z,1004.49
2023-02-03T10:51:01.676Z,1004.53
2023-02-03T10:52:03.985Z,1004.41
2023-02-03T10:53:02.508Z,1004.41
2023-02-03T10:54:02.394Z,1004.47
2023-02-03T10:55:08.935Z,1004.45
2023-02-03T10:56:02.712Z,1004.39
2023-02-03T10:57:06.208Z,1004.50
2023-02-03T10:58:03.881Z,1004.55
2023-02-03T10:59:03.669Z,1004.45
2023-02-03T11:00:03.742Z,1004.44
2023-02-03T11:01:11.184Z,1004.47
2023-02-03T11:02:06.429Z,1004.44
2023-02-03T11:03:07.014Z,1004.44
2023-02-03T11:04:08.084Z,1004.41
2023-02-03T11:05:17.053Z,1004.42
2023-02-03T11:06:09.935Z,1004.47
2023-02-03T11:07:07.016Z,1004.39
2023-02-03T11:08:16.776Z,1004.34
2023-02-03T11:09:09.776Z,1004.32
2023-02-03T11:10:07.898Z,1004.31
2023-02-03T11:11:06.765Z,1004.33
2023-02-03T11:12:08.552Z,1004.29
2023-02-03T11:13:07.412Z,1004.41
2023-02-03T11:14:09.314Z,1004.40
2023-02-03T11:15:09.690Z,1004.37
2023-02-03T11:19:48.455Z,1004.33
2023-02-03T11:20:44.361Z,1004.34
2023-02-03T11:22:52.996Z,1004.26
2023-02-03T11:23:50.661Z,1004.33
2023-02-03T11:24:45.624Z,1004.29
2023-02-03T11:27:53.012Z,1004.38
2023-02-03T11:28:48.923Z,1004.42
2023-02-03T11:29:58.783Z,1004.34
2023-02-03T11:32:10.571Z,1004.39
2023-02-03T11:32:46.832Z,1004.45
2023-02-03T11:33:48.868Z,1004.42
2023-02-03T11:34:47.616Z,1004.38
2023-02-03T11:35:49.107Z,1004.43
2023-02-03T11:36:52.573Z,1004.41
2023-02-03T11:37:48.671Z,1004.52
2023-02-03T11:38:49.493Z,1004.58
2023-02-03T11:39:48.608Z,1004.71
2023-02-03T11:40:48.519Z,1004.77
2023-02-03T11:41:48.992Z,1004.84
2023-02-03T11:42:48.936Z,1004.57
2023-02-03T11:43:49.224Z,1004.60
2023-02-03T11:44:49.349Z,1004.68
2023-02-03T11:45:49.386Z,1004.84
2023-02-03T11:46:49.058Z,1004.85
2023-02-03T11:47:49.794Z,1004.74
2023-02-03T11:48:50.331Z,1004.85
2023-02-03T11:49:50.073Z,1004.81
2023-02-03T11:50:50.609Z,1004.85
2023-02-03T11:51:49.721Z,1004.99
2023-02-03T11:52:51.008Z,1004.99
2023-02-03T11:53:56.924Z,1005.14
2023-02-03T11:54:52.394Z,1004.84
2023-02-03T11:55:51.634Z,1005.02
2023-02-03T11:56:51.319Z,1005.21
2023-02-03T11:57:51.853Z,1005.19
2023-02-03T11:58:51.757Z,1005.18
2023-02-03T11:59:53.118Z,1005.27
2023-02-03T12:00:52.435Z,1005.18
2023-02-03T12:01:53.067Z,1005.33
2023-02-03T12:02:53.106Z,1005.21
2023-02-03T12:03:52.785Z,1005.26
2023-02-03T12:04:52.935Z,1005.24
2023-02-03T12:05:53.599Z,1005.20
2023-02-03T12:06:53.428Z,1005.17
2023-02-03T12:07:54.226Z,1005.21
2023-02-03T12:08:54.087Z,1005.20
2023-02-03T12:09:54.731Z,1005.23
2023-02-03T12:10:54.852Z,1005.28
2023-02-03T12:11:55.527Z,1005.31
2023-02-03T12:12:56.027Z,1005.32
2023-02-03T12:13:55.896Z,1005.40
2023-02-03T12:14:56.476Z,1005.43
2023-02-03T12:15:56.443Z,1005.34
2023-02-03T12:16:56.205Z,1005.38
2023-02-03T12:17:56.637Z,1005.41
2023-02-03T12:18:57.276Z,1005.46
2023-02-03T12:19:57.227Z,1005.48
2023-02-03T12:20:57.097Z,1005.51